createdAt,value
2017-07-26T00:06:40.407Z,1001
2017-07-26T00:16:54.424Z,1001.1
2017-07-26T00:27:08.983Z,1001.2
2017-07-26T00:37:23.953Z,1001.2
2017-07-26T00:47:39.315Z,1001.2
2017-07-26T00:57:54.201Z,1001.1
2017-07-26T01:08:08.345Z,1001.2
2017-07-26T01:18:23.309Z,1001.2
2017-07-26T01:28:38.502Z,1001.1
2017-07-26T01:38:53.639Z,1001.1
2017-07-26T01:49:08.087Z,1001
2017-07-26T01:59:23.813Z,1001
2017-07-26T02:09:38.611Z,1001
2017-07-26T02:19:53.483Z,1001.1
2017-07-26T02:30:09.230Z,1001
2017-07-26T02:40:23.861Z,1001
2017-07-26T02:50:38.486Z,1001.1
2017-07-26T03:00:52.334Z,1001.1
2017-07-26T03:11:06.900Z,1001.1
2017-07-26T03:21:21.197Z,1001.1
2017-07-26T03:31:36.356Z,1001.1
2017-07-26T03:41:50.900Z,1001.1
2017-07-26T03:52:05.677Z,1001.1
2017-07-26T04:02:20.359Z,1001
2017-07-26T04:12:35.896Z,1001.1
2017-07-26T04:22:49.856Z,1001.2
2017-07-26T04:33:03.992Z,1001.2
2017-07-26T04:43:19.117Z,1001.2
2017-07-26T04:53:34.550Z,1001.3
2017-07-26T05:03:48.283Z,1001.3
2017-07-26T05:14:03.924Z,1001.3
2017-07-26T05:24:19.526Z,1001.3
2017-07-26T05:34:34.688Z,1001.5
2017-07-26T05:44:50.035Z,1001.5
2017-07-26T05:55:04.066Z,1001.4
2017-07-26T06:05:19.021Z,1001.5
2017-07-26T06:15:33.824Z,1001.5
2017-07-26T06:25:48.699Z,1001.5
2017-07-26T06:36:03.098Z,1001.5
2017-07-26T06:46:18.467Z,1001.7
2017-07-26T06:56:33.249Z,1001.8
2017-07-26T07:06:48.141Z,1001.8
2017-07-26T07:17:02.661Z,1002.1
2017-07-26T07:27:16.744Z,1002
2017-07-26T07:37:31.455Z,1002.1
2017-07-26T07:47:47.273Z,1002.2
2017-07-26T07:58:02.304Z,1002
2017-07-26T08:08:17.861Z,1001.9
2017-07-26T08:18:33.001Z,1002
2017-07-26T08:28:46.978Z,1001.9
2017-07-26T08:39:01.891Z,1002.2
2017-07-26T08:49:15.844Z,1002.4
2017-07-26T08:59:31.290Z,1002.1
2017-07-26T09:09:46.212Z,1002.1
2017-07-26T09:20:01.802Z,1002.3
2017-07-26T09:30:16.001Z,1002.9
2017-07-26T09:40:30.020Z,1002.1
2017-07-26T09:50:44.980Z,1002.3
2017-07-26T10:01:00.013Z,1002.4
2017-07-26T10:11:15.852Z,1002.2
2017-07-26T10:21:30.442Z,1002.7
2017-07-26T10:31:44.380Z,1002.5
2017-07-26T10:41:58.937Z,1002.4
2017-07-26T10:52:14.719Z,1002.7
2017-07-26T11:02:30.587Z,1002.8
2017-07-26T11:12:45.860Z,1002.8
2017-07-26T11:23:00.033Z,1002.7
2017-07-26T11:33:15.495Z,1002.3
2017-07-26T11:43:30.852Z,1002.1
2017-07-26T11:53:46.426Z,1002.6
2017-07-26T12:04:00.506Z,1002
2017-07-26T12:14:15.499Z,1002.1
2017-07-26T12:24:30.647Z,1002.5
2017-07-26T12:34:45.585Z,1002.6
2017-07-26T12:44:59.543Z,1002.6
2017-07-26T12:55:14.444Z,1003.3
2017-07-26T13:05:30.167Z,1002.8
2017-07-26T13:15:45.440Z,1002.3
2017-07-26T13:26:00.041Z,1003.7
2017-07-26T13:36:15.849Z,1002.2
2017-07-26T13:46:30.854Z,1002
2017-07-26T13:56:46.294Z,1002
2017-07-26T14:07:00.998Z,1002.3
2017-07-26T14:17:15.014Z,1002
2017-07-26T14:27:29.946Z,1002
2017-07-26T14:37:44.085Z,1001.8
2017-07-26T14:47:58.000Z,1001.9
2017-07-26T14:58:13.039Z,1001.7
2017-07-26T15:08:27.771Z,1001.9
2017-07-26T15:18:43.256Z,1001.9
2017-07-26T15:28:58.628Z,1002
2017-07-26T15:39:13.790Z,1001.8
2017-07-26T15:49:28.130Z,1001.9
2017-07-26T15:59:43.737Z,1001.7
2017-07-26T16:09:58.277Z,1001.6
2017-07-26T16:20:13.456Z,1001.3
2017-07-26T16:30:29.331Z,1001.5
2017-07-26T16:40:44.351Z,1001.5
2017-07-26T16:50:59.848Z,1001.5
2017-07-26T17:01:14.022Z,1001.5
2017-07-26T17:11:28.884Z,1001.5
2017-07-26T17:21:43.776Z,1001.5
2017-07-26T17:31:58.516Z,1001.4
2017-07-26T17:42:13.399Z,1001.5
2017-07-26T17:52:28.816Z,1001.6
2017-07-26T18:02:43.556Z,1001.5
2017-07-26T18:12:57.461Z,1001.5
2017-07-26T18:23:13.281Z,1001.5
2017-07-26T18:33:28.562Z,1001.4
2017-07-26T18:43:44.296Z,1001.4
2017-07-26T18:53:59.016Z,1001.4
2017-07-26T19:04:14.527Z,1001.4
2017-07-26T19:14:29.017Z,1001.4
2017-07-26T19:24:43.236Z,1001.4
2017-07-26T19:34:57.788Z,1001.5
2017-07-26T19:45:13.139Z,1001.4
2017-07-26T19:55:27.645Z,1001.4
2017-07-26T20:05:41.507Z,1001.4
2017-07-26T20:15:56.828Z,1001.4
2017-07-26T20:26:11.692Z,1001.4
2017-07-26T20:36:26.084Z,1001.3
2017-07-26T20:46:40.210Z,1001.2
2017-07-26T20:56:56.318Z,1001.2
2017-07-26T21:07:09.665Z,1001.3
2017-07-26T21:17:24.480Z,1001.1
2017-07-26T21:27:39.720Z,1001.1
2017-07-26T21:37:54.058Z,1001.1
2017-07-26T21:48:07.888Z,1001.1
2017-07-26T21:58:22.694Z,1000.8
2017-07-26T22:08:37.923Z,1000.9
2017-07-26T22:18:52.194Z,1000.6
2017-07-26T22:29:06.024Z,1000.5
2017-07-26T22:39:21.869Z,1000.4
2017-07-26T22:49:36.326Z,1000.4
2017-07-26T22:59:51.503Z,1000.4
2017-07-26T23:10:07.063Z,1000.4
2017-07-26T23:20:21.008Z,1000.4
2017-07-26T23:30:35.733Z,1000.3
2017-07-26T23:40:49.669Z,1000.3
2017-07-26T23:51:04.433Z,1000.3
